Flight Track Log - Related Links

Times and Time Zones

All times are in EDT time to prevent confusion due to time zone crossing. See the DAL5259 flight status page for this flight to view local times or setup timezone preferences in your user account.


Time Position Orientation Groundspeed Altitude Reporting Facility
EDT Latitude Longitude Course Direction KTS MPH feet Rate Location/Type
Sun 08:49:45 PM 42.3667 -71.0167 324° Northwest 147 169 700  Level KA90
Sun 08:49:57 PM 42.3833 -71.0333 324° Northwest 148 170 1,300 2,083 Climbing KA90
Sun 08:50:57 PM 42.4000 -71.0833 294° West 186 214 3,200 2,300 Climbing KA90
Sun 08:51:57 PM 42.3833 -71.1500 251° West 254 292 5,900 2,789 Climbing KA90
Sun 08:52:51 PM 42.3333 -71.2000 216° Southwest 281 323 8,500 2,578 Climbing KA90
Sun 08:54:05 PM 42.2378 -71.1397 155° Southeast 318 366 11,400 1,853 Climbing Boston Center
Sun 08:55:07 PM 42.1606 -71.0492 139° Southeast 372 428 12,700 1,426 Climbing Boston Center
Sun 08:56:07 PM 42.0678 -70.9622 145° Southeast 404 465 14,300 1,900 Climbing Boston Center
Sun 08:57:07 PM 41.9711 -70.8711 145° Southeast 421 484 16,500 1,983 Climbing Boston Center
Sun 08:58:08 PM 41.8833 -70.7897 145° Southeast 424 488 18,300 1,869 Climbing Boston Center
Sun 08:59:09 PM 41.7842 -70.7897 180° South 389 448 20,300 1,426 Climbing Boston Center
Sun 09:00:10 PM 41.6914 -70.8586 209° Southwest 383 441 21,200 919 Climbing Boston Center
Sun 09:01:13 PM 41.5719 -70.9489 209° Southwest 406 467 22,200 1,403 Climbing Boston Center
Sun 09:02:14 PM 41.4919 -71.0542 225° Southwest 408 470 24,100 1,750 Climbing Boston Center
Sun 09:03:13 PM 41.4256 -71.1644 231° Southwest 390 449 25,700 1,500 Climbing Boston Center
Sun 09:04:14 PM 41.3547 -71.2775 230° Southwest 390 449 27,100 1,377 Climbing Boston Center
Sun 09:05:15 PM 41.2833 -71.3883 229° Southwest 393 452 28,500 1,279 Climbing Boston Center
Sun 09:06:16 PM 41.2167 -71.4989 231° Southwest 394 453 29,700 1,180 Climbing Boston Center
Sun 09:07:17 PM 41.1508 -71.6167 233° Southwest 392 451 30,900 1,131 Climbing Boston Center
Sun 09:08:18 PM 41.0847 -71.7336 233° Southwest 397 457 32,000 1,073 Climbing Boston Center
Sun 09:09:20 PM 41.0106 -71.8469 229° Southwest 405 466 33,100 976 Climbing Boston Center
Sun 09:10:21 PM 40.9392 -71.9594 230° Southwest 407 468 34,000 443 Climbing Boston Center
Sun 09:11:22 PM 40.8631 -72.0797 230° Southwest 417 480 34,000  Level Boston Center
Sun 09:12:22 PM 40.7856 -72.2003 230° Southwest 439 505 34,000  Level Boston Center
Sun 09:13:23 PM 40.7044 -72.3267 230° Southwest 450 518 34,000  Level Boston Center
Sun 09:14:26 PM 40.6225 -72.4531 230° Southwest 455 524 34,000  Level Boston Center
Sun 09:15:26 PM 40.5406 -72.5789 229° Southwest 455 524 34,000  Level Boston Center
Sun 09:16:24 PM 40.4586 -72.7069 230° Southwest 458 527 34,000  Level Boston Center
Sun 09:17:26 PM 40.3597 -72.8592 230° Southwest 458 527 34,000  Level Boston Center
Sun 09:18:29 PM 40.2764 -72.9856 229° Southwest 459 528 34,000  Level Boston Center
Sun 09:19:30 PM 40.2022 -73.0953 229° Southwest 461 531 34,000  Level Boston Center
Sun 09:20:31 PM 40.1022 -73.2475 229° Southwest 461 531 34,000  Level Boston Center
Sun 09:21:38 PM 40.0011 -73.3653 222° Southwest 461 531 34,000  Level Washington Center
Sun 09:22:39 PM 39.8928 -73.4847 220° Southwest 471 542 34,000  Level Washington Center
Sun 09:23:38 PM 39.7928 -73.5986 221° Southwest 481 554 34,000  Level Washington Center
Sun 09:24:40 PM 39.6925 -73.7092 220° Southwest 481 554 34,000  Level Washington Center
Sun 09:25:40 PM 39.5919 -73.8197 220° Southwest 481 554 34,000  Level Washington Center
Sun 09:26:40 PM 39.4914 -73.9325 221° Southwest 481 554 34,000  Level Washington Center
Sun 09:27:41 PM 39.4031 -74.0283 220° Southwest 481 554 34,000  Level Washington Center
Sun 09:28:39 PM 39.3025 -74.1378 220° Southwest 481 554 34,000  Level Washington Center
Sun 09:29:39 PM 39.2017 -74.2469 220° Southwest 476 548 34,000  Level Washington Center
Sun 09:30:39 PM 39.1006 -74.3586 221° Southwest 482 555 34,000  Level Washington Center
Sun 09:31:39 PM 39.0017 -74.4672 220° Southwest 475 547 34,000 -49 Level Washington Center
Sun 09:32:41 PM 38.9025 -74.5728 220° Southwest 475 547 33,900 -756 Descending Washington Center
Sun 09:33:38 PM 38.7992 -74.6833 220° Southwest 480 552 32,500 -966 Descending Washington Center
Sun 09:34:39 PM 38.6978 -74.7911 220° Southwest 480 552 32,000 -250 Descending Washington Center
Sun 09:35:38 PM 38.6028 -74.9064 223° Southwest 474 545 32,000  Level Washington Center
Sun 09:36:39 PM 38.5117 -75.0133 223° Southwest 464 534 32,000  Level Washington Center
Sun 09:37:40 PM 38.4183 -75.1228 223° Southwest 464 534 32,000  Level Washington Center
Sun 09:38:40 PM 38.3247 -75.2369 224° Southwest 464 534 32,000  Level Washington Center
Sun 09:39:38 PM 38.2356 -75.3539 226° Southwest 464 534 32,000  Level Washington Center
Sun 09:40:40 PM 38.1397 -75.4675 223° Southwest 470 541 32,000  Level Washington Center
Sun 09:41:39 PM 38.0314 -75.5864 221° Southwest 470 541 32,000  Level Washington Center
Sun 09:42:39 PM 37.9519 -75.6892 226° Southwest 470 541 32,000  Level Washington Center
Sun 09:43:40 PM 37.8581 -75.7997 223° Southwest 470 541 32,000 -150 Level Washington Center
Sun 09:44:39 PM 37.7619 -75.9150 223° Southwest 470 541 31,700 -756 Descending Washington Center
Sun 09:45:39 PM 37.6572 -76.0378 223° Southwest 476 548 30,500 -1,412 Descending Washington Center
Sun 09:46:38 PM 37.5650 -76.1472 223° Southwest 476 548 28,900 -1,513 Descending Washington Center
Sun 09:47:38 PM 37.4811 -76.2356 220° Southwest 466 536 27,500 -1,488 Descending Washington Center
Sun 09:48:39 PM 37.3928 -76.3394 223° Southwest 448 516 25,900 -1,574 Descending Washington Center
Sun 09:49:40 PM 37.3047 -76.4431 223° Southwest 442 509 24,300 -942 Descending Washington Center
Sun 09:50:40 PM 37.2244 -76.5492 226° Southwest 437 503 24,000 -153 Descending Washington Center
Sun 09:51:38 PM 37.1506 -76.6656 231° Southwest 432 497 24,000  Level Washington Center
Sun 09:52:39 PM 37.0764 -76.7789 231° Southwest 432 497 24,000 -148 Level Washington Center
Sun 09:53:40 PM 37.0003 -76.8975 231° Southwest 432 497 23,700 -1,350 Descending Washington Center
Sun 09:54:39 PM 36.9258 -77.0131 231° Southwest 437 503 21,300 -2,000 Descending Washington Center
Sun 09:55:40 PM 36.8536 -77.1258 231° Southwest 437 503 19,700 -1,289 Descending Washington Center
Sun 09:56:40 PM 36.7811 -77.2333 230° Southwest 432 497 18,700 -1,008 Descending Washington Center
Sun 09:57:39 PM 36.7128 -77.3433 232° Southwest 415 478 17,700 -1,140 Descending Washington Center
Sun 09:58:41 PM 36.6425 -77.4481 230° Southwest 415 478 16,400 -1,311 Descending Washington Center
Sun 09:59:38 PM 36.5739 -77.5550 231° Southwest 415 478 15,100 -1,322 Descending Washington Center
Sun 10:00:39 PM 36.5056 -77.6592 231° Southwest 408 470 13,800 -1,289 Descending Washington Center
Sun 10:01:39 PM 36.4431 -77.7583 232° Southwest 390 449 12,500 -744 Descending Washington Center
Sun 10:02:40 PM 36.3894 -77.8394 231° Southwest 351 404 12,300 -252 Descending Washington Center
Sun 10:03:38 PM 36.3422 -77.9128 231° Southwest 310 357 12,000 -202 Descending Washington Center
Sun 10:04:09 PM 36.3122 -77.9556 229° Southwest 276 318 12,000  Level Washington Center
Sun 10:04:38 PM 36.2906 -77.9886 231° Southwest 293 337 12,000  Level Washington Center
Sun 10:05:16 PM 36.2519 -78.0467 230° Southwest 298 343 12,000 -97 Level Washington Center
Sun 10:05:40 PM 36.2411 -78.0669 236° Southwest 293 337 11,900 -1,241 Descending Washington Center
Sun 10:06:14 PM 36.2025 -78.1172 226° Southwest 281 323 10,800 -1,729 Descending Washington Center
Sun 10:06:39 PM 36.1872 -78.1475 238° Southwest 293 337 10,200 -1,524 Descending Washington Center
Sun 10:07:17 PM 36.1592 -78.1931 233° Southwest 266 306 9,200 -1,525 Descending Washington Center
Sun 10:07:38 PM 36.1503 -78.2158 244° Southwest 283 326 8,700 -1,655 Descending Washington Center
Sun 10:08:15 PM 36.1261 -78.2767 244° Southwest 269 310 7,600 -1,700 Descending Washington Center
Sun 10:08:38 PM 36.1169 -78.3097 251° West 274 315 7,000 -1,452 Descending Washington Center
Sun 10:09:17 PM 36.0969 -78.3581 243° Southwest 259 298 6,100 -1,355 Descending Washington Center
Sun 10:09:40 PM 36.0944 -78.3836 263° West 267 307 5,600 -1,500 Descending Washington Center
Sun 10:10:17 PM 36.0742 -78.4369 245° Southwest 247 284 4,600 -1,424 Descending Washington Center
Sun 10:10:39 PM 36.0694 -78.4597 256° West 254 292 4,200 -1,279 Descending Washington Center
Sun 10:11:18 PM 36.0472 -78.5231 247° West 246 283 3,300 -1,100 Descending Washington Center
Sun 10:11:39 PM 36.0425 -78.5383 249° West 249 287 3,100 -982 Descending Washington Center
Sun 10:12:13 PM 36.0269 -78.5867 248° West 245 282 2,400 -915 Descending Washington Center
Sun 10:12:38 PM 36.0158 -78.6094 239° Southwest 244 281 2,200 -358 Descending Washington Center
Sun 10:13:20 PM 35.9878 -78.6467 227° Southwest 174 200 2,000 -200 Descending Washington Center
Sun 10:13:38 PM 35.9814 -78.6542 224° Southwest 215 247 2,000  Level Washington Center
Sun 10:14:21 PM 35.9578 -78.6817 223° Southwest 139 160 2,000 -58 Level Washington Center
Sun 10:15:21 PM 35.9294 -78.7189 227° Southwest 145 167 1,900 -403 Descending Washington Center
Sun 10:16:20 PM 35.9036 -78.7514 226° Southwest 131 151 1,200 -712 Descending Washington Center
Sun 10:18:00 PM 35.8776 -78.7875 North  Level Estimated

Login

Don't have an account? Register now (free) for customized features, flight alerts, and more!